createdAt,value
2019-02-27T00:00:11.478Z,991.27
2019-02-27T00:01:10.485Z,991.28
2019-02-27T00:02:10.403Z,991.27
2019-02-27T00:03:10.326Z,991.26
2019-02-27T00:04:10.245Z,991.26
2019-02-27T00:05:10.168Z,991.30
2019-02-27T00:06:10.082Z,991.28
2019-02-27T00:07:09.999Z,991.26
2019-02-27T00:08:09.916Z,991.26
2019-02-27T00:09:09.837Z,991.24
2019-02-27T00:10:09.750Z,991.24
2019-02-27T00:11:09.945Z,991.23
2019-02-27T00:12:09.589Z,991.17
2019-02-27T00:13:09.558Z,991.18
2019-02-27T00:14:09.424Z,991.16
2019-02-27T00:15:09.341Z,991.15
2019-02-27T00:16:11.121Z,991.14
2019-02-27T00:17:09.194Z,991.10
2019-02-27T00:18:09.093Z,991.09
2019-02-27T00:19:09.019Z,991.10
2019-02-27T00:20:08.932Z,991.10
2019-02-27T00:21:10.987Z,991.08
2019-02-27T00:22:08.766Z,991.09
2019-02-27T00:23:08.678Z,991.11
2019-02-27T00:24:08.603Z,991.10
2019-02-27T00:25:08.522Z,991.10
2019-02-27T00:26:09.049Z,991.08
2019-02-27T00:27:08.355Z,991.06
2019-02-27T00:28:08.285Z,991.03
2019-02-27T00:29:08.192Z,991.06
2019-02-27T00:30:08.112Z,991.03
2019-02-27T00:31:11.142Z,991.04
2019-02-27T00:32:07.947Z,991.02
2019-02-27T00:33:07.865Z,991.00
2019-02-27T00:34:07.778Z,991.01
2019-02-27T00:35:07.701Z,991.04
2019-02-27T00:36:11.984Z,991.03
2019-02-27T00:37:07.538Z,991.03
2019-02-27T00:38:07.453Z,990.97
2019-02-27T00:39:07.372Z,991.01
2019-02-27T00:40:07.292Z,990.96
2019-02-27T00:41:07.234Z,990.96
2019-02-27T00:42:07.124Z,990.90
2019-02-27T00:43:07.044Z,990.90
2019-02-27T00:44:06.955Z,990.88
2019-02-27T00:45:07.635Z,990.87
2019-02-27T00:46:06.796Z,990.88
2019-02-27T00:47:06.719Z,990.85
2019-02-27T00:48:06.631Z,990.86
2019-02-27T00:49:06.548Z,990.83
2019-02-27T00:50:06.781Z,990.85
2019-02-27T00:51:06.381Z,990.87
2019-02-27T00:52:06.309Z,990.84
2019-02-27T00:53:06.217Z,990.82
2019-02-27T00:54:06.134Z,990.80
2019-02-27T00:55:06.053Z,990.80
2019-02-27T00:56:05.971Z,990.75
2019-02-27T00:57:05.890Z,990.78
2019-02-27T00:58:05.809Z,990.74
2019-02-27T00:59:05.723Z,990.75
2019-02-27T01:00:06.635Z,990.81
2019-02-27T01:01:05.572Z,990.81
2019-02-27T01:02:05.475Z,990.80
2019-02-27T01:03:05.394Z,990.81
2019-02-27T01:04:05.314Z,990.84
2019-02-27T01:05:06.199Z,990.80
2019-02-27T01:06:05.144Z,990.83
2019-02-27T01:07:05.068Z,990.80
2019-02-27T01:08:04.979Z,990.76
2019-02-27T01:09:06.391Z,990.78
2019-02-27T01:10:04.818Z,990.76
2019-02-27T01:11:04.736Z,990.77
2019-02-27T01:12:04.657Z,990.73
2019-02-27T01:13:04.572Z,990.74
2019-02-27T01:14:04.614Z,990.77
2019-02-27T01:15:04.406Z,990.74
2019-02-27T01:16:04.325Z,990.74
2019-02-27T01:17:04.259Z,990.77
2019-02-27T01:18:04.166Z,990.78
2019-02-27T01:19:04.789Z,990.71
2019-02-27T01:20:03.994Z,990.75
2019-02-27T01:21:03.911Z,990.76
2019-02-27T01:22:03.831Z,990.77
2019-02-27T01:23:03.746Z,990.80
2019-02-27T01:24:03.667Z,990.78
2019-02-27T01:25:03.586Z,990.76
2019-02-27T01:26:03.499Z,990.75
2019-02-27T01:27:04.617Z,990.73
2019-02-27T01:28:03.335Z,990.72
2019-02-27T01:29:03.259Z,990.71
2019-02-27T01:30:03.169Z,990.67
2019-02-27T01:31:03.085Z,990.67
2019-02-27T01:32:03.005Z,990.66
2019-02-27T01:33:04.231Z,990.67
2019-02-27T01:34:02.839Z,990.63
2019-02-27T01:35:02.759Z,990.63
2019-02-27T01:36:02.674Z,990.63
2019-02-27T01:37:02.618Z,990.64
2019-02-27T01:38:05.000Z,990.61
2019-02-27T01:39:02.423Z,990.55
2019-02-27T01:40:02.343Z,990.54
2019-02-27T01:41:02.260Z,990.54
2019-02-27T01:42:02.175Z,990.55
2019-02-27T01:43:05.538Z,990.49
2019-02-27T01:44:02.011Z,990.54
2019-02-27T01:45:01.931Z,990.54
2019-02-27T01:46:01.846Z,990.53
2019-02-27T01:47:02.914Z,990.55
2019-02-27T01:48:01.674Z,990.57
2019-02-27T01:49:01.597Z,990.55
2019-02-27T01:50:01.520Z,990.57
2019-02-27T01:51:01.434Z,990.60
2019-02-27T01:52:02.094Z,990.58
2019-02-27T01:53:01.267Z,990.59
2019-02-27T01:54:01.179Z,990.53
2019-02-27T01:55:01.101Z,990.49
2019-02-27T01:56:01.019Z,990.49
2019-02-27T01:57:02.867Z,990.43
2019-02-27T01:58:00.866Z,990.41
2019-02-27T01:59:00.766Z,990.42
2019-02-27T02:00:00.690Z,990.41
2019-02-27T02:01:00.602Z,990.39
2019-02-27T02:02:01.099Z,990.35
2019-02-27T02:03:00.435Z,990.34
2019-02-27T02:04:00.356Z,990.33
2019-02-27T02:05:00.271Z,990.33
2019-02-27T02:06:00.193Z,990.33
2019-02-27T02:07:00.103Z,990.31
2019-02-27T02:08:00.016Z,990.29
2019-02-27T02:08:59.938Z,990.32
2019-02-27T02:09:59.854Z,990.31
2019-02-27T02:11:01.416Z,990.24
2019-02-27T02:11:59.690Z,990.19
2019-02-27T02:12:59.605Z,990.24
2019-02-27T02:13:59.521Z,990.16
2019-02-27T02:14:59.443Z,990.13
2019-02-27T02:16:00.857Z,990.19
2019-02-27T02:16:59.274Z,990.14
2019-02-27T02:17:59.190Z,990.19
2019-02-27T02:18:59.105Z,990.20
2019-02-27T02:19:59.028Z,990.16
2019-02-27T02:21:01.667Z,990.12
2019-02-27T02:21:58.859Z,990.13
2019-02-27T02:22:58.770Z,990.09
2019-02-27T02:23:58.693Z,990.11
2019-02-27T02:24:58.610Z,990.09
2019-02-27T02:26:01.092Z,990.06
2019-02-27T02:26:58.443Z,990.05
2019-02-27T02:27:58.369Z,990.04
2019-02-27T02:28:58.276Z,990.05
2019-02-27T02:29:58.191Z,990.04
2019-02-27T02:30:58.106Z,990.08
2019-02-27T02:31:58.028Z,990.08
2019-02-27T02:32:57.946Z,990.05
2019-02-27T02:33:57.857Z,990.02
2019-02-27T02:34:57.778Z,990.02
2019-02-27T02:35:57.697Z,990.00
2019-02-27T02:37:01.419Z,990.03
2019-02-27T02:37:57.531Z,990.06
2019-02-27T02:38:57.444Z,990.05
2019-02-27T02:39:57.368Z,990.09
2019-02-27T02:40:57.279Z,990.10
2019-02-27T02:41:57.196Z,990.09
2019-02-27T02:43:02.119Z,990.07
2019-02-27T02:43:57.032Z,990.01
2019-02-27T02:44:57.666Z,990.00
2019-02-27T02:45:56.862Z,990.01
2019-02-27T02:46:56.781Z,989.95
2019-02-27T02:47:56.913Z,989.97
2019-02-27T02:48:56.634Z,989.95
2019-02-27T02:49:56.527Z,989.99
2019-02-27T02:50:56.445Z,989.93
2019-02-27T02:51:56.367Z,989.95
2019-02-27T02:52:56.281Z,990.01
2019-02-27T02:54:00.335Z,989.98
2019-02-27T02:54:56.117Z,990.00
2019-02-27T02:55:56.025Z,990.01
2019-02-27T02:57:00.188Z,989.99
2019-02-27T02:57:55.861Z,990.04
2019-02-27T02:58:55.776Z,990.01
2019-02-27T02:59:59.423Z,989.99
2019-02-27T03:00:55.683Z,989.95
2019-02-27T03:01:55.564Z,989.93
2019-02-27T03:02:57.465Z,989.94
2019-02-27T03:03:55.369Z,989.94
2019-02-27T03:04:55.278Z,989.92
2019-02-27T03:05:59.792Z,989.94
2019-02-27T03:06:55.115Z,989.92
2019-02-27T03:07:55.031Z,989.90
2019-02-27T03:08:56.226Z,989.88
2019-02-27T03:09:54.864Z,989.85
2019-02-27T03:10:54.780Z,989.83
2019-02-27T03:11:55.815Z,989.87
2019-02-27T03:12:54.614Z,989.85
2019-02-27T03:13:54.532Z,989.87
2019-02-27T03:14:54.619Z,989.89
2019-02-27T03:15:54.366Z,989.86
2019-02-27T03:16:54.283Z,989.86
2019-02-27T03:17:55.055Z,989.83
2019-02-27T03:18:54.113Z,989.79
2019-02-27T03:19:54.027Z,989.78
2019-02-27T03:20:53.946Z,989.81
2019-02-27T03:21:53.862Z,989.81
2019-02-27T03:22:53.779Z,989.81
2019-02-27T03:23:53.693Z,989.81
2019-02-27T03:24:53.612Z,989.85
2019-02-27T03:25:53.521Z,989.78
2019-02-27T03:26:53.437Z,989.75
2019-02-27T03:27:53.360Z,989.76
2019-02-27T03:28:53.275Z,989.73
2019-02-27T03:29:53.861Z,989.77
2019-02-27T03:30:53.110Z,989.77
2019-02-27T03:32:00.001Z,989.79
2019-02-27T03:32:52.943Z,989.75
2019-02-27T03:33:52.858Z,989.76
2019-02-27T03:34:52.773Z,989.76
2019-02-27T03:35:52.684Z,989.73
2019-02-27T03:36:52.600Z,989.74
2019-02-27T03:37:52.529Z,989.74
2019-02-27T03:38:55.913Z,989.73
2019-02-27T03:39:52.350Z,989.70
2019-02-27T03:40:52.278Z,989.70
2019-02-27T03:41:58.391Z,989.70
2019-02-27T03:42:52.101Z,989.72
2019-02-27T03:43:52.029Z,989.72
2019-02-27T03:44:55.772Z,989.70
2019-02-27T03:45:51.858Z,989.73
2019-02-27T03:46:51.775Z,989.74
2019-02-27T03:47:52.090Z,989.73
2019-02-27T03:48:51.597Z,989.74
2019-02-27T03:49:51.522Z,989.75
2019-02-27T03:50:51.434Z,989.75
2019-02-27T03:51:51.351Z,989.75
2019-02-27T03:52:51.269Z,989.79
2019-02-27T03:53:51.186Z,989.80
2019-02-27T03:54:56.952Z,989.85
2019-02-27T03:55:51.019Z,989.82
2019-02-27T03:56:50.935Z,989.86
2019-02-27T03:57:54.882Z,989.84
2019-02-27T03:58:50.762Z,989.83
2019-02-27T03:59:50.674Z,989.78
2019-02-27T04:00:53.730Z,989.77
2019-02-27T04:01:50.511Z,989.77
2019-02-27T04:02:50.431Z,989.83
2019-02-27T04:03:54.253Z,989.80
2019-02-27T04:04:50.260Z,989.83
2019-02-27T04:05:50.175Z,989.83
2019-02-27T04:06:52.985Z,989.84
2019-02-27T04:07:50.010Z,989.81
2019-02-27T04:08:49.936Z,989.85
2019-02-27T04:09:54.806Z,989.83
2019-02-27T04:10:49.758Z,989.84
2019-02-27T04:11:49.674Z,989.78
2019-02-27T04:12:51.648Z,989.78
2019-02-27T04:13:49.510Z,989.81
2019-02-27T04:14:49.428Z,989.77
2019-02-27T04:15:53.350Z,989.77
2019-02-27T04:16:49.256Z,989.75
2019-02-27T04:17:52.210Z,989.73
2019-02-27T04:18:49.099Z,989.73
2019-02-27T04:19:49.004Z,989.70
2019-02-27T04:20:50.708Z,989.67
2019-02-27T04:21:48.839Z,989.64
2019-02-27T04:22:48.750Z,989.66
2019-02-27T04:23:49.329Z,989.64
2019-02-27T04:24:48.592Z,989.65
2019-02-27T04:25:48.496Z,989.65
2019-02-27T04:26:48.418Z,989.68
2019-02-27T04:27:48.334Z,989.71
2019-02-27T04:28:48.248Z,989.69
2019-02-27T04:29:48.164Z,989.66
2019-02-27T04:30:51.122Z,989.70
2019-02-27T04:31:47.993Z,989.71
2019-02-27T04:32:48.919Z,989.70
2019-02-27T04:33:47.825Z,989.71
2019-02-27T04:34:47.749Z,989.71
2019-02-27T04:35:47.660Z,989.66
2019-02-27T04:36:47.811Z,989.69
2019-02-27T04:37:47.491Z,989.71
2019-02-27T04:38:47.410Z,989.68
2019-02-27T04:39:47.329Z,989.68
2019-02-27T04:40:47.242Z,989.68
2019-02-27T04:41:49.562Z,989.64
2019-02-27T04:42:47.068Z,989.65
2019-02-27T04:43:46.989Z,989.60
2019-02-27T04:44:46.900Z,989.61
2019-02-27T04:45:47.584Z,989.62
2019-02-27T04:46:46.737Z,989.57
2019-02-27T04:47:46.653Z,989.58
2019-02-27T04:48:46.568Z,989.62
2019-02-27T04:49:46.494Z,989.63
2019-02-27T04:50:46.414Z,989.64
2019-02-27T04:51:48.131Z,989.67
2019-02-27T04:52:46.233Z,989.66
2019-02-27T04:53:46.153Z,989.68
2019-02-27T04:54:46.066Z,989.69
2019-02-27T04:55:47.980Z,989.68
2019-02-27T04:56:45.898Z,989.68
2019-02-27T04:57:45.814Z,989.68
2019-02-27T04:58:45.730Z,989.67
2019-02-27T04:59:45.645Z,989.66
2019-02-27T05:00:45.561Z,989.67
2019-02-27T05:01:45.474Z,989.70
2019-02-27T05:02:45.395Z,989.71
2019-02-27T05:03:45.308Z,989.72
2019-02-27T05:04:45.244Z,989.67
2019-02-27T05:05:45.144Z,989.66
2019-02-27T05:06:47.275Z,989.66
2019-02-27T05:07:44.984Z,989.65
2019-02-27T05:08:44.894Z,989.62
2019-02-27T05:09:44.812Z,989.64
2019-02-27T05:10:44.720Z,989.67
2019-02-27T05:11:47.449Z,989.72
2019-02-27T05:12:47.838Z,989.70
2019-02-27T05:13:44.468Z,989.69
2019-02-27T05:14:44.384Z,989.70
2019-02-27T05:15:44.299Z,989.71
2019-02-27T05:16:46.999Z,989.72
2019-02-27T05:17:44.126Z,989.72
2019-02-27T05:18:44.045Z,989.71
2019-02-27T05:19:43.962Z,989.71
2019-02-27T05:20:45.689Z,989.70
2019-02-27T05:21:43.795Z,989.68
2019-02-27T05:22:43.714Z,989.72
2019-02-27T05:23:43.626Z,989.72
2019-02-27T05:24:43.550Z,989.75
2019-02-27T05:25:43.466Z,989.77
2019-02-27T05:26:43.378Z,989.75
2019-02-27T05:27:43.291Z,989.72
2019-02-27T05:28:43.219Z,989.75
2019-02-27T05:29:43.123Z,989.77
2019-02-27T05:30:45.323Z,989.74
2019-02-27T05:31:42.954Z,989.69
2019-02-27T05:32:42.871Z,989.73
2019-02-27T05:33:42.781Z,989.75
2019-02-27T05:34:42.701Z,989.77
2019-02-27T05:35:42.620Z,989.77
2019-02-27T05:36:42.532Z,989.82
2019-02-27T05:37:42.448Z,989.81
2019-02-27T05:38:43.622Z,989.79
2019-02-27T05:39:42.279Z,989.82
2019-02-27T05:40:42.199Z,989.78
2019-02-27T05:41:42.112Z,989.78
2019-02-27T05:42:42.021Z,989.79
2019-02-27T05:43:41.943Z,989.74
2019-02-27T05:44:41.861Z,989.74
2019-02-27T05:45:41.769Z,989.72
2019-02-27T05:46:41.687Z,989.76
2019-02-27T05:47:44.806Z,989.75
2019-02-27T05:48:41.519Z,989.73
2019-02-27T05:49:41.434Z,989.73
2019-02-27T05:50:41.360Z,989.70
2019-02-27T05:51:41.265Z,989.71
2019-02-27T05:52:41.186Z,989.69
2019-02-27T05:53:41.098Z,989.72
2019-02-27T05:54:41.032Z,989.72
2019-02-27T05:55:40.928Z,989.74
2019-02-27T05:56:40.852Z,989.71
2019-02-27T05:57:40.766Z,989.75
2019-02-27T05:58:40.680Z,989.74
2019-02-27T05:59:40.596Z,989.73
2019-02-27T06:00:40.513Z,989.71
2019-02-27T06:01:40.442Z,989.71
2019-02-27T06:02:41.893Z,989.70
2019-02-27T06:03:40.251Z,989.72
2019-02-27T06:04:40.173Z,989.72
2019-02-27T06:05:40.089Z,989.73
2019-02-27T06:06:40.000Z,989.71
2019-02-27T06:07:39.921Z,989.77
2019-02-27T06:08:39.837Z,989.75
2019-02-27T06:09:41.398Z,989.73
2019-02-27T06:10:39.669Z,989.73
2019-02-27T06:11:39.588Z,989.77
2019-02-27T06:12:40.746Z,989.72
2019-02-27T06:13:39.418Z,989.73
2019-02-27T06:14:39.332Z,989.73
2019-02-27T06:15:39.247Z,989.73
2019-02-27T06:16:40.859Z,989.75
2019-02-27T06:17:43.438Z,989.77
2019-02-27T06:18:38.993Z,989.77
2019-02-27T06:19:38.906Z,989.75
2019-02-27T06:20:41.592Z,989.75
2019-02-27T06:21:38.934Z,989.75
2019-02-27T06:22:38.658Z,989.74
2019-02-27T06:23:38.574Z,989.72
2019-02-27T06:24:38.493Z,989.74
2019-02-27T06:25:38.400Z,989.72
2019-02-27T06:26:38.318Z,989.72
2019-02-27T06:27:39.413Z,989.74
2019-02-27T06:28:38.152Z,989.69
2019-02-27T06:29:38.065Z,989.78
2019-02-27T06:30:37.982Z,989.76
2019-02-27T06:31:39.529Z,989.75
2019-02-27T06:32:37.815Z,989.74
2019-02-27T06:33:37.735Z,989.70
2019-02-27T06:34:37.647Z,989.72
2019-02-27T06:35:37.558Z,989.74
2019-02-27T06:36:42.031Z,989.71
2019-02-27T06:37:37.391Z,989.73
2019-02-27T06:38:37.306Z,989.74
2019-02-27T06:39:37.223Z,989.72
2019-02-27T06:40:37.135Z,989.75
2019-02-27T06:41:37.053Z,989.74
2019-02-27T06:42:36.970Z,989.76
2019-02-27T06:43:36.884Z,989.73
2019-02-27T06:44:39.325Z,989.73
2019-02-27T06:45:36.718Z,989.74
2019-02-27T06:46:36.631Z,989.71
2019-02-27T06:47:36.543Z,989.71
2019-02-27T06:48:36.459Z,989.69
2019-02-27T06:49:36.382Z,989.70
2019-02-27T06:50:36.297Z,989.68
2019-02-27T06:51:36.537Z,989.70
2019-02-27T06:52:36.127Z,989.70
2019-02-27T06:53:36.038Z,989.70
2019-02-27T06:54:37.768Z,989.70
2019-02-27T06:55:35.876Z,989.68
2019-02-27T06:56:35.788Z,989.69
2019-02-27T06:57:35.705Z,989.67
2019-02-27T06:58:35.622Z,989.68
2019-02-27T06:59:35.536Z,989.65
2019-02-27T07:00:36.726Z,989.67
2019-02-27T07:01:35.370Z,989.68
2019-02-27T07:02:35.285Z,989.65
2019-02-27T07:03:35.198Z,989.65
2019-02-27T07:04:36.433Z,989.66
2019-02-27T07:05:35.031Z,989.66
2019-02-27T07:06:36.869Z,989.63
2019-02-27T07:07:34.877Z,989.61
2019-02-27T07:08:37.852Z,989.61
2019-02-27T07:09:34.696Z,989.63
2019-02-27T07:10:34.608Z,989.64
2019-02-27T07:11:34.528Z,989.60
2019-02-27T07:12:34.436Z,989.65
2019-02-27T07:13:34.364Z,989.65
2019-02-27T07:14:36.515Z,989.61
2019-02-27T07:15:34.189Z,989.64
2019-02-27T07:16:34.105Z,989.63
2019-02-27T07:17:34.025Z,989.66
2019-02-27T07:18:33.935Z,989.64
2019-02-27T07:19:33.853Z,989.65
2019-02-27T07:20:33.763Z,989.66
2019-02-27T07:21:33.684Z,989.66
2019-02-27T07:22:33.598Z,989.63
2019-02-27T07:23:35.235Z,989.64
2019-02-27T07:24:33.803Z,989.66
2019-02-27T07:25:33.349Z,989.63
2019-02-27T07:26:33.263Z,989.60
2019-02-27T07:27:33.177Z,989.61
2019-02-27T07:28:33.102Z,989.63
2019-02-27T07:29:33.015Z,989.60
2019-02-27T07:30:32.930Z,989.56
2019-02-27T07:31:32.845Z,989.59
2019-02-27T07:32:32.755Z,989.59
2019-02-27T07:33:32.678Z,989.59
2019-02-27T07:34:32.591Z,989.56
2019-02-27T07:35:32.507Z,989.58
2019-02-27T07:36:32.428Z,989.60
2019-02-27T07:37:32.342Z,989.62
2019-02-27T07:38:32.258Z,989.58
2019-02-27T07:39:32.787Z,989.59
2019-02-27T07:40:32.095Z,989.58
2019-02-27T07:41:32.007Z,989.62
2019-02-27T07:42:32.634Z,989.61
2019-02-27T07:43:31.845Z,989.61
2019-02-27T07:44:32.226Z,989.61
2019-02-27T07:45:31.675Z,989.63
2019-02-27T07:46:31.588Z,989.60
2019-02-27T07:47:31.517Z,989.59
2019-02-27T07:48:31.426Z,989.59
2019-02-27T07:49:31.587Z,989.62
2019-02-27T07:50:32.564Z,989.57
2019-02-27T07:51:31.181Z,989.63
2019-02-27T07:52:32.613Z,989.63
2019-02-27T07:53:31.012Z,989.65
2019-02-27T07:54:30.927Z,989.64
2019-02-27T07:55:30.842Z,989.64
2019-02-27T07:56:30.764Z,989.65
2019-02-27T07:57:30.686Z,989.68
2019-02-27T07:58:33.695Z,989.71
2019-02-27T07:59:30.509Z,989.71
2019-02-27T08:00:30.427Z,989.70
2019-02-27T08:01:30.340Z,989.69
2019-02-27T08:02:30.259Z,989.69
2019-02-27T08:03:30.180Z,989.70
2019-02-27T08:04:30.098Z,989.69
2019-02-27T08:05:30.013Z,989.70
2019-02-27T08:06:29.932Z,989.73
2019-02-27T08:07:29.857Z,989.73
2019-02-27T08:08:29.767Z,989.68
2019-02-27T08:09:30.255Z,989.70
2019-02-27T08:10:29.606Z,989.68
2019-02-27T08:11:29.516Z,989.68
2019-02-27T08:12:29.439Z,989.73
2019-02-27T08:13:29.764Z,989.68
2019-02-27T08:14:29.278Z,989.72
2019-02-27T08:15:29.196Z,989.69
2019-02-27T08:16:29.116Z,989.72
2019-02-27T08:17:29.028Z,989.71
2019-02-27T08:18:30.441Z,989.73
2019-02-27T08:19:28.867Z,989.78
2019-02-27T08:20:28.786Z,989.76
2019-02-27T08:21:28.759Z,989.73
2019-02-27T08:22:28.622Z,989.77
2019-02-27T08:23:28.537Z,989.73
2019-02-27T08:24:28.460Z,989.78
2019-02-27T08:25:28.379Z,989.73
2019-02-27T08:26:28.299Z,989.74
2019-02-27T08:27:28.215Z,989.74
2019-02-27T08:28:28.139Z,989.74
2019-02-27T08:29:28.049Z,989.75
2019-02-27T08:30:27.973Z,989.77
2019-02-27T08:31:28.756Z,989.74
2019-02-27T08:32:27.807Z,989.75
2019-02-27T08:33:27.728Z,989.79
2019-02-27T08:34:27.648Z,989.72
2019-02-27T08:35:27.567Z,989.77
2019-02-27T08:36:27.484Z,989.74
2019-02-27T08:37:27.401Z,989.72
2019-02-27T08:38:27.328Z,989.70
2019-02-27T08:39:27.243Z,989.69
2019-02-27T08:40:27.158Z,989.69
2019-02-27T08:41:29.164Z,989.68
2019-02-27T08:42:27.005Z,989.66
2019-02-27T08:43:26.923Z,989.68
2019-02-27T08:44:26.842Z,989.71
2019-02-27T08:45:27.692Z,989.71
2019-02-27T08:46:26.682Z,989.70
2019-02-27T08:47:26.601Z,989.70
2019-02-27T08:48:26.521Z,989.69
2019-02-27T08:49:26.435Z,989.65
2019-02-27T08:50:29.213Z,989.64
2019-02-27T08:51:26.281Z,989.68
2019-02-27T08:52:26.222Z,989.66
2019-02-27T08:53:26.966Z,989.58
2019-02-27T08:54:26.037Z,989.58
2019-02-27T08:55:25.963Z,989.55
2019-02-27T08:56:25.885Z,989.58
2019-02-27T08:57:25.802Z,989.56
2019-02-27T08:58:26.673Z,989.53
2019-02-27T08:59:25.644Z,989.51
2019-02-27T09:00:25.563Z,989.56
2019-02-27T09:01:25.477Z,989.55
2019-02-27T09:02:29.254Z,989.53
2019-02-27T09:03:25.322Z,989.53
2019-02-27T09:04:25.246Z,989.54
2019-02-27T09:05:25.175Z,989.52
2019-02-27T09:06:27.541Z,989.54
2019-02-27T09:07:25.005Z,989.49
2019-02-27T09:08:24.929Z,989.45
2019-02-27T09:09:24.845Z,989.45
2019-02-27T09:10:26.864Z,989.43
2019-02-27T09:11:24.697Z,989.41
2019-02-27T09:12:24.611Z,989.42
2019-02-27T09:13:24.533Z,989.40
2019-02-27T09:14:24.453Z,989.43
2019-02-27T09:15:24.397Z,989.40
2019-02-27T09:16:26.014Z,989.39
2019-02-27T09:17:26.886Z,989.40
2019-02-27T09:18:24.143Z,989.36
2019-02-27T09:19:24.063Z,989.37
2019-02-27T09:20:23.979Z,989.32
2019-02-27T09:21:24.959Z,989.37
2019-02-27T09:22:23.825Z,989.36
2019-02-27T09:23:23.745Z,989.38
2019-02-27T09:24:23.677Z,989.36
2019-02-27T09:25:24.638Z,989.33
2019-02-27T09:26:24.321Z,989.34
2019-02-27T09:27:23.437Z,989.34
2019-02-27T09:28:23.359Z,989.32
2019-02-27T09:29:23.279Z,989.33
2019-02-27T09:30:23.208Z,989.33
2019-02-27T09:31:23.124Z,989.31
2019-02-27T09:32:23.048Z,989.31
2019-02-27T09:33:22.968Z,989.30
2019-02-27T09:34:26.613Z,989.33
2019-02-27T09:35:22.811Z,989.28
2019-02-27T09:36:22.737Z,989.30
2019-02-27T09:37:22.656Z,989.30
2019-02-27T09:38:24.395Z,989.26
2019-02-27T09:39:22.495Z,989.23
2019-02-27T09:40:22.422Z,989.21
2019-02-27T09:41:22.347Z,989.23
2019-02-27T09:42:22.271Z,989.21
2019-02-27T09:43:24.079Z,989.19
2019-02-27T09:44:22.124Z,989.18
2019-02-27T09:45:22.037Z,989.17
2019-02-27T09:46:21.961Z,989.17
2019-02-27T09:47:23.218Z,989.12
2019-02-27T09:48:21.806Z,989.14
2019-02-27T09:49:21.726Z,989.16
2019-02-27T09:50:21.650Z,989.15
2019-02-27T09:51:22.223Z,989.10
2019-02-27T09:52:21.496Z,989.14
2019-02-27T09:53:21.419Z,989.11
2019-02-27T09:54:21.338Z,989.13
2019-02-27T09:55:21.262Z,989.11
2019-02-27T09:56:21.193Z,989.12
2019-02-27T09:57:21.107Z,989.08
2019-02-27T09:58:22.577Z,989.07
2019-02-27T09:59:20.961Z,989.05
2019-02-27T10:00:20.882Z,989.06
2019-02-27T10:01:20.808Z,989.05
2019-02-27T10:02:20.739Z,989.05
2019-02-27T10:03:21.572Z,988.98
2019-02-27T10:04:20.573Z,988.95
2019-02-27T10:05:20.532Z,988.98
2019-02-27T10:06:20.422Z,988.92
2019-02-27T10:07:20.362Z,988.91
2019-02-27T10:08:20.280Z,988.91
2019-02-27T10:09:20.257Z,988.91
2019-02-27T10:10:20.112Z,988.89
2019-02-27T10:11:22.278Z,988.87
2019-02-27T10:12:19.964Z,988.91
2019-02-27T10:13:19.920Z,988.86
2019-02-27T10:14:19.814Z,988.85
2019-02-27T10:15:19.736Z,988.88
2019-02-27T10:16:19.665Z,988.89
2019-02-27T10:17:19.585Z,988.87
2019-02-27T10:18:22.005Z,988.86
2019-02-27T10:19:19.435Z,988.86
2019-02-27T10:20:19.366Z,988.87
2019-02-27T10:21:19.275Z,988.87
2019-02-27T10:22:20.183Z,988.84
2019-02-27T10:23:19.129Z,988.86
2019-02-27T10:24:19.051Z,988.85
2019-02-27T10:25:19.015Z,988.82
2019-02-27T10:26:19.423Z,988.84
2019-02-27T10:27:18.829Z,988.85
2019-02-27T10:28:18.767Z,988.84
2019-02-27T10:29:19.096Z,988.88
2019-02-27T10:30:18.601Z,988.81
2019-02-27T10:31:18.563Z,988.80
2019-02-27T10:32:18.473Z,988.81
2019-02-27T10:33:18.375Z,988.76
2019-02-27T10:34:18.343Z,988.76
2019-02-27T10:35:18.231Z,988.74
2019-02-27T10:36:18.154Z,988.73
2019-02-27T10:37:18.976Z,988.66
2019-02-27T10:38:18.002Z,988.64
2019-02-27T10:39:17.930Z,988.61
2019-02-27T10:40:17.857Z,988.58
2019-02-27T10:41:17.781Z,988.55
2019-02-27T10:42:17.705Z,988.56
2019-02-27T10:43:17.629Z,988.54
2019-02-27T10:44:17.557Z,988.54
2019-02-27T10:45:17.483Z,988.54
2019-02-27T10:46:17.404Z,988.52
2019-02-27T10:47:17.326Z,988.49
2019-02-27T10:48:17.272Z,988.46
2019-02-27T10:49:21.440Z,988.45
2019-02-27T10:50:17.108Z,988.44
2019-02-27T10:51:17.034Z,988.40
2019-02-27T10:52:16.962Z,988.42
2019-02-27T10:53:16.883Z,988.41
2019-02-27T10:54:16.814Z,988.34
2019-02-27T10:55:16.738Z,988.39
2019-02-27T10:56:17.529Z,988.35
2019-02-27T10:57:16.590Z,988.35
2019-02-27T10:58:16.516Z,988.40
2019-02-27T10:59:16.438Z,988.31
2019-02-27T11:00:16.369Z,988.33
2019-02-27T11:01:16.292Z,988.33
2019-02-27T11:02:16.220Z,988.29
2019-02-27T11:03:16.142Z,988.30
2019-02-27T11:04:16.069Z,988.28
2019-02-27T11:05:17.789Z,988.28
2019-02-27T11:06:15.916Z,988.28
2019-02-27T11:07:16.806Z,988.24
2019-02-27T11:08:15.781Z,988.21
2019-02-27T11:09:15.698Z,988.15
2019-02-27T11:10:15.625Z,988.15
2019-02-27T11:11:16.460Z,988.13
2019-02-27T11:12:15.479Z,988.11
2019-02-27T11:13:15.404Z,988.11
2019-02-27T11:14:15.329Z,988.12
2019-02-27T11:15:15.254Z,988.09
2019-02-27T11:16:15.574Z,988.06
2019-02-27T11:17:15.105Z,988.02
2019-02-27T11:18:15.032Z,987.99
2019-02-27T11:19:16.662Z,988.01
2019-02-27T11:20:20.247Z,987.98
2019-02-27T11:21:14.817Z,987.95
2019-02-27T11:22:14.739Z,987.90
2019-02-27T11:23:14.667Z,987.89
2019-02-27T11:24:17.321Z,987.89
2019-02-27T11:25:14.512Z,987.88
2019-02-27T11:26:14.446Z,987.83
2019-02-27T11:27:14.370Z,987.83
2019-02-27T11:28:14.300Z,987.82
2019-02-27T11:29:14.225Z,987.83
2019-02-27T11:30:14.156Z,987.86
2019-02-27T11:31:15.513Z,987.78
2019-02-27T11:32:14.004Z,987.80
2019-02-27T11:33:25.241Z,987.79
2019-02-27T11:34:13.862Z,987.84
2019-02-27T11:35:13.785Z,987.81
2019-02-27T11:36:13.703Z,987.81
2019-02-27T11:37:14.022Z,987.79
2019-02-27T11:38:13.565Z,987.78
2019-02-27T11:39:13.493Z,987.78
2019-02-27T11:40:13.425Z,987.75
2019-02-27T11:41:15.352Z,987.74
2019-02-27T11:42:13.270Z,987.70
2019-02-27T11:43:13.196Z,987.65
2019-02-27T11:44:14.307Z,987.64
2019-02-27T11:45:13.049Z,987.61
2019-02-27T11:46:12.974Z,987.57
2019-02-27T11:47:12.907Z,987.57
2019-02-27T11:48:12.833Z,987.55
2019-02-27T11:49:12.758Z,987.58
2019-02-27T11:50:14.693Z,987.59
2019-02-27T11:51:13.989Z,987.55
2019-02-27T11:52:12.539Z,987.54
2019-02-27T11:53:12.466Z,987.49
2019-02-27T11:54:14.511Z,987.50
2019-02-27T11:55:14.814Z,987.45
2019-02-27T11:56:12.244Z,987.42
2019-02-27T11:57:12.173Z,987.41
2019-02-27T11:58:12.100Z,987.38
2019-02-27T11:59:12.950Z,987.33
2019-02-27T12:00:13.647Z,987.36
2019-02-27T12:01:12.248Z,987.32
2019-02-27T12:02:11.806Z,987.34
2019-02-27T12:03:12.013Z,987.33
2019-02-27T12:04:11.664Z,987.29
2019-02-27T12:05:11.594Z,987.26
2019-02-27T12:06:11.509Z,987.24
2019-02-27T12:07:12.287Z,987.21
2019-02-27T12:08:11.492Z,987.23
2019-02-27T12:09:11.297Z,987.18
2019-02-27T12:10:11.245Z,987.20
2019-02-27T12:11:13.398Z,987.16
2019-02-27T12:12:11.078Z,987.16
2019-02-27T12:13:11.004Z,987.15
2019-02-27T12:14:10.932Z,987.08
2019-02-27T12:15:10.860Z,987.05
2019-02-27T12:16:10.791Z,987.05
2019-02-27T12:17:10.708Z,987.04
2019-02-27T12:18:10.636Z,987.01
2019-02-27T12:19:10.570Z,987.01
2019-02-27T12:20:10.491Z,986.98
2019-02-27T12:21:10.418Z,986.94
2019-02-27T12:22:10.345Z,986.98
2019-02-27T12:23:10.829Z,986.95
2019-02-27T12:24:10.199Z,986.96
2019-02-27T12:25:10.133Z,986.92
2019-02-27T12:26:10.068Z,986.93
2019-02-27T12:27:10.381Z,986.94